Time;durP1;ratioP1;P1;durP2;ratioP2;P2;SDS_P1;SDS_P2;PMS_P1;PMS_P2;Temp;Humidity;BMP_temperature;BMP_pressure;BME280_temperature;BME280_humidity;BME280_pressure;Samples;Min_cycle;Max_cycle;Signal;HPM_P1;HPM_P2
2022/11/30 00:00:16;;;;;;;0.20;0.20;;;;;;;;;;5019550;28;20056;-62
2022/11/30 00:02:45;;;;;;;0.88;0.20;;;;;;;;;;4995462;28;20049;-62
2022/11/30 00:05:15;;;;;;;0.55;0.20;;;;;;;;;;5028667;28;20165;-61
2022/11/30 00:07:45;;;;;;;1.25;0.28;;;;;;;;;;5012051;28;20058;-61
2022/11/30 00:10:15;;;;;;;1.02;0.40;;;;;;;;;;5028339;28;20060;-62
2022/11/30 00:12:45;;;;;;;1.10;0.30;;;;;;;;;;5028805;28;20045;-62
2022/11/30 00:15:16;;;;;;;1.05;0.40;;;;;;;;;;5028410;28;20057;-62
2022/11/30 00:17:46;;;;;;;2.45;0.40;;;;;;;;;;5001991;28;20066;-63
2022/11/30 00:20:16;;;;;;;0.50;0.20;;;;;;;;;;5008765;28;20053;-63
2022/11/30 00:22:46;;;;;;;1.67;0.32;;;;;;;;;;5008852;28;20065;-62
2022/11/30 00:25:17;;;;;;;1.42;0.45;;;;;;;;;;5028114;28;20498;-64
2022/11/30 00:27:46;;;;;;;3.15;0.35;;;;;;;;;;4969970;28;20053;-63
2022/11/30 00:30:16;;;;;;;4.40;0.50;;;;;;;;;;4959943;28;20084;-63
2022/11/30 00:32:46;;;;;;;1.02;0.70;;;;;;;;;;4960133;28;20062;-62
2022/11/30 00:35:16;;;;;;;1.73;0.20;;;;;;;;;;5008573;28;20519;-63
2022/11/30 00:37:46;;;;;;;0.40;0.40;;;;;;;;;;5008679;28;20057;-62
2022/11/30 00:40:16;;;;;;;0.70;0.47;;;;;;;;;;5008385;28;20058;-62
2022/11/30 00:42:46;;;;;;;2.17;0.40;;;;;;;;;;5008666;28;20085;-63
2022/11/30 00:45:16;;;;;;;0.32;0.30;;;;;;;;;;5008777;28;20060;-62
2022/11/30 00:47:45;;;;;;;0.30;0.22;;;;;;;;;;5008652;28;20065;-63
2022/11/30 00:50:15;;;;;;;1.45;0.30;;;;;;;;;;4959934;28;20050;-63
2022/11/30 00:52:45;;;;;;;1.92;0.30;;;;;;;;;;5008568;28;20084;-63
2022/11/30 00:55:15;;;;;;;0.65;0.65;;;;;;;;;;4959836;28;20062;-62
2022/11/30 00:57:44;;;;;;;3.85;1.55;;;;;;;;;;4972880;28;20549;-63
2022/11/30 01:00:14;;;;;;;1.35;0.70;;;;;;;;;;4991340;28;20054;-62
2022/11/30 01:02:44;;;;;;;0.70;0.35;;;;;;;;;;5005235;28;20047;-62
2022/11/30 01:05:14;;;;;;;1.63;0.40;;;;;;;;;;4972886;28;20069;-63
2022/11/30 01:07:44;;;;;;;2.42;0.35;;;;;;;;;;4990786;28;20392;-63
2022/11/30 01:10:13;;;;;;;2.13;0.30;;;;;;;;;;4991423;28;20664;-62
2022/11/30 01:12:43;;;;;;;1.42;0.30;;;;;;;;;;4988922;28;20487;-63
2022/11/30 01:15:13;;;;;;;1.23;0.35;;;;;;;;;;4992051;28;20403;-63
2022/11/30 01:17:42;;;;;;;1.95;1.20;;;;;;;;;;4992312;28;20046;-62
2022/11/30 01:20:12;;;;;;;3.97;0.95;;;;;;;;;;4960119;28;20510;-63
2022/11/30 01:22:42;;;;;;;2.00;0.57;;;;;;;;;;5008521;28;20066;-64
2022/11/30 01:25:12;;;;;;;1.80;0.60;;;;;;;;;;4992761;28;20557;-64
2022/11/30 01:27:41;;;;;;;7.03;3.92;;;;;;;;;;4976198;28;20062;-62
2022/11/30 01:30:12;;;;;;;1.40;0.80;;;;;;;;;;4994650;28;20478;-61
2022/11/30 01:32:41;;;;;;;4.20;0.75;;;;;;;;;;4975866;28;20055;-61
2022/11/30 01:35:11;;;;;;;1.45;0.32;;;;;;;;;;4992058;28;20046;-61
2022/11/30 01:37:41;;;;;;;1.77;0.50;;;;;;;;;;4994203;28;20501;-62
2022/11/30 01:40:12;;;;;;;2.33;0.60;;;;;;;;;;4992257;28;20437;-62
2022/11/30 01:42:47;;;;;;;2.20;0.60;;;;;;;;;;4991967;28;20073;-62
2022/11/30 01:45:17;;;;;;;3.60;0.75;;;;;;;;;;4991340;28;20046;-62
2022/11/30 01:47:51;;;;;;;3.63;1.17;;;;;;;;;;4991311;28;20053;-62
2022/11/30 01:50:31;;;;;;;3.00;0.55;;;;;;;;;;4974912;28;20105;-62
2022/11/30 01:53:04;;;;;;;1.13;0.47;;;;;;;;;;4975637;28;20061;-62
2022/11/30 01:55:41;;;;;;;3.53;0.60;;;;;;;;;;4991712;28;20054;-62
2022/11/30 01:58:26;;;;;;;6.00;0.50;;;;;;;;;;4990690;28;20050;-62
2022/11/30 02:00:58;;;;;;;2.38;0.63;;;;;;;;;;4959042;28;20049;-62
2022/11/30 02:03:35;;;;;;;3.90;0.50;;;;;;;;;;4991348;28;20704;-62
2022/11/30 02:06:05;;;;;;;7.63;0.60;;;;;;;;;;4991248;28;20054;-62
2022/11/30 02:08:35;;;;;;;5.82;0.75;;;;;;;;;;4991381;28;20049;-62
2022/11/30 02:11:12;;;;;;;1.73;0.70;;;;;;;;;;4959016;28;20058;-62
2022/11/30 02:14:24;;;;;;;2.65;0.55;;;;;;;;;;4959027;28;20093;-62
2022/11/30 02:17:20;;;;;;;8.45;0.90;;;;;;;;;;4971738;28;20050;-62
2022/11/30 02:20:18;;;;;;;2.70;0.75;;;;;;;;;;4971629;28;20067;-62
2022/11/30 02:23:03;;;;;;;4.70;0.63;;;;;;;;;;4962714;28;20051;-63
2022/11/30 02:25:50;;;;;;;;;;;;;;;;;;4974281;28;20058;-63
2022/11/30 02:28:37;;;;;;;1.80;0.43;;;;;;;;;;4959020;28;19921;-63
2022/11/30 02:31:14;;;;;;;3.63;0.40;;;;;;;;;;4990767;28;20516;-63
2022/11/30 02:33:46;;;;;;;0.70;0.40;;;;;;;;;;4990535;28;20055;-63
2022/11/30 02:36:18;;;;;;;3.55;0.73;;;;;;;;;;4990767;28;20490;-63
2022/11/30 02:38:49;;;;;;;3.22;0.43;;;;;;;;;;4974687;28;20054;-63
2022/11/30 02:41:18;;;;;;;0.75;0.30;;;;;;;;;;4990654;28;20042;-63
2022/11/30 02:43:48;;;;;;;2.78;0.50;;;;;;;;;;5006651;28;20061;-63
2022/11/30 02:46:34;;;;;;;4.15;0.85;;;;;;;;;;4974540;28;20450;-63
2022/11/30 02:49:07;;;;;;;2.67;0.80;;;;;;;;;;4990672;28;20066;-63
2022/11/30 02:51:39;;;;;;;4.18;0.93;;;;;;;;;;4990560;28;20648;-63
2022/11/30 02:54:09;;;;;;;2.28;0.70;;;;;;;;;;4959359;28;20097;-63
2022/11/30 02:56:39;;;;;;;3.35;0.47;;;;;;;;;;4990497;28;20061;-63
2022/11/30 02:59:09;;;;;;;2.42;0.60;;;;;;;;;;4990114;28;20054;-63
2022/11/30 03:01:39;;;;;;;4.25;0.60;;;;;;;;;;4990127;28;20050;-64
2022/11/30 03:04:09;;;;;;;7.35;0.70;;;;;;;;;;4990426;28;20054;-63
2022/11/30 03:06:39;;;;;;;4.28;0.70;;;;;;;;;;4990228;28;20454;-63
2022/11/30 03:09:09;;;;;;;4.03;0.75;;;;;;;;;;4990303;28;20054;-62
2022/11/30 03:11:38;;;;;;;2.88;0.70;;;;;;;;;;4973662;28;20046;-63
2022/11/30 03:14:08;;;;;;;5.28;0.60;;;;;;;;;;4990020;28;20057;-63
2022/11/30 03:16:38;;;;;;;2.80;0.90;;;;;;;;;;4957587;28;20058;-63
2022/11/30 03:19:07;;;;;;;1.92;0.77;;;;;;;;;;4989959;28;20538;-63
2022/11/30 03:21:37;;;;;;;1.02;0.52;;;;;;;;;;4974518;28;20050;-63
2022/11/30 03:24:07;;;;;;;4.85;0.75;;;;;;;;;;4981663;28;20418;-63
2022/11/30 03:26:36;;;;;;;1.85;0.60;;;;;;;;;;4990073;28;20065;-63
2022/11/30 03:29:06;;;;;;;2.47;0.52;;;;;;;;;;4990116;28;20426;-63
2022/11/30 03:31:35;;;;;;;2.83;0.73;;;;;;;;;;4992502;28;20057;-63
2022/11/30 03:34:05;;;;;;;3.85;1.17;;;;;;;;;;5006301;28;20054;-63
2022/11/30 03:36:35;;;;;;;3.70;1.00;;;;;;;;;;4991656;28;20049;-63
2022/11/30 03:39:05;;;;;;;2.65;1.08;;;;;;;;;;4991880;28;20055;-64
2022/11/30 03:41:34;;;;;;;3.38;0.70;;;;;;;;;;4992065;28;20053;-64
2022/11/30 03:44:04;;;;;;;5.88;1.23;;;;;;;;;;4991973;28;20398;-64
2022/11/30 03:46:34;;;;;;;3.38;0.93;;;;;;;;;;4989874;28;20058;-64
2022/11/30 03:49:04;;;;;;;2.38;1.10;;;;;;;;;;4992040;28;20383;-64
2022/11/30 03:51:34;;;;;;;2.92;1.10;;;;;;;;;;4991940;28;20054;-63
2022/11/30 03:54:04;;;;;;;3.17;0.98;;;;;;;;;;4990043;28;20061;-64
2022/11/30 03:56:33;;;;;;;3.35;0.88;;;;;;;;;;4989567;28;20422;-63
2022/11/30 03:59:03;;;;;;;2.95;1.08;;;;;;;;;;4989102;28;20069;-63
2022/11/30 04:01:33;;;;;;;4.03;1.02;;;;;;;;;;4992308;28;20699;-64
2022/11/30 04:04:02;;;;;;;2.42;0.90;;;;;;;;;;4989505;28;20046;-65
2022/11/30 04:06:33;;;;;;;7.18;1.23;;;;;;;;;;4991984;28;20486;-65
2022/11/30 04:09:02;;;;;;;6.03;1.13;;;;;;;;;;4973228;28;20479;-64
2022/11/30 04:11:32;;;;;;;6.07;1.00;;;;;;;;;;4991948;28;20047;-65
2022/11/30 04:14:01;;;;;;;3.75;1.02;;;;;;;;;;4989369;28;20074;-64
2022/11/30 04:16:31;;;;;;;4.15;0.80;;;;;;;;;;4991769;28;20057;-64
2022/11/30 04:19:01;;;;;;;2.20;0.80;;;;;;;;;;4989443;28;20058;-64
2022/11/30 04:21:30;;;;;;;4.00;0.90;;;;;;;;;;4991753;28;20050;-64
2022/11/30 04:24:00;;;;;;;1.70;0.82;;;;;;;;;;4989642;28;20047;-64
2022/11/30 04:26:30;;;;;;;2.63;1.20;;;;;;;;;;4989727;28;20058;-63
2022/11/30 04:28:59;;;;;;;4.43;0.90;;;;;;;;;;4957217;28;20065;-64
2022/11/30 04:31:32;;;;;;;2.03;0.85;;;;;;;;;;4975163;28;20057;-64
2022/11/30 04:34:02;;;;;;;3.25;0.73;;;;;;;;;;4991666;28;20046;-64
2022/11/30 04:36:32;;;;;;;3.10;0.98;;;;;;;;;;4989324;28;20069;-64
2022/11/30 04:39:01;;;;;;;4.30;0.93;;;;;;;;;;4988945;28;20046;-64
2022/11/30 04:41:31;;;;;;;3.40;1.00;;;;;;;;;;4988992;28;20058;-64
2022/11/30 04:44:00;;;;;;;3.92;1.00;;;;;;;;;;4988755;28;20051;-64
2022/11/30 04:46:30;;;;;;;2.95;0.90;;;;;;;;;;4988984;28;20050;-64
2022/11/30 04:49:00;;;;;;;5.45;1.08;;;;;;;;;;4990665;28;20546;-64
2022/11/30 04:51:29;;;;;;;2.67;0.85;;;;;;;;;;4992692;28;20169;-64
2022/11/30 04:53:59;;;;;;;5.60;1.17;;;;;;;;;;4976791;28;20057;-64
2022/11/30 04:56:28;;;;;;;4.03;1.05;;;;;;;;;;4992858;28;20617;-64
2022/11/30 04:59:00;;;;;;;3.92;0.85;;;;;;;;;;4975654;28;20521;-63
2022/11/30 05:01:29;;;;;;;1.70;0.88;;;;;;;;;;4960133;28;20079;-64
2022/11/30 05:03:59;;;;;;;2.80;0.60;;;;;;;;;;4992399;28;20059;-64
2022/11/30 05:06:29;;;;;;;4.70;0.63;;;;;;;;;;4960303;28;20074;-63
2022/11/30 05:08:59;;;;;;;2.28;0.98;;;;;;;;;;4992134;28;20053;-64
2022/11/30 05:11:29;;;;;;;2.90;0.93;;;;;;;;;;4975860;28;20058;-64
2022/11/30 05:13:58;;;;;;;2.20;0.82;;;;;;;;;;4976097;28;20058;-64
2022/11/30 05:16:28;;;;;;;4.00;0.82;;;;;;;;;;4992861;28;20415;-64
2022/11/30 05:18:57;;;;;;;2.97;0.85;;;;;;;;;;4995032;28;20054;-64
2022/11/30 05:21:27;;;;;;;8.73;0.80;;;;;;;;;;4992534;28;20062;-64
2022/11/30 05:23:57;;;;;;;1.80;0.90;;;;;;;;;;4993172;28;20054;-64
2022/11/30 05:26:26;;;;;;;2.88;0.85;;;;;;;;;;4975930;28;20126;-64
2022/11/30 05:28:56;;;;;;;2.42;0.70;;;;;;;;;;4994841;28;20065;-64
2022/11/30 05:31:25;;;;;;;3.20;0.73;;;;;;;;;;4994761;28;21044;-63
2022/11/30 05:33:55;;;;;;;3.25;0.60;;;;;;;;;;4994433;28;20042;-63
2022/11/30 05:36:25;;;;;;;2.15;0.70;;;;;;;;;;4994419;28;20057;-64
2022/11/30 05:38:55;;;;;;;7.28;0.82;;;;;;;;;;4991860;28;20065;-64
2022/11/30 05:41:25;;;;;;;3.47;0.82;;;;;;;;;;4994526;28;20375;-63
2022/11/30 05:43:55;;;;;;;4.25;1.00;;;;;;;;;;4994288;28;20047;-64
2022/11/30 05:46:24;;;;;;;4.88;1.98;;;;;;;;;;4975892;28;20126;-63
2022/11/30 05:48:54;;;;;;;3.03;0.60;;;;;;;;;;4975614;28;20050;-63
2022/11/30 05:51:24;;;;;;;3.83;0.50;;;;;;;;;;5011185;28;20045;-63
2022/11/30 05:53:54;;;;;;;5.35;0.98;;;;;;;;;;5011108;28;20061;-64
2022/11/30 05:56:23;;;;;;;2.20;0.80;;;;;;;;;;4978616;28;20509;-63
2022/11/30 05:58:53;;;;;;;2.00;0.98;;;;;;;;;;5010445;28;20072;-64
2022/11/30 06:01:25;;;;;;;3.75;1.33;;;;;;;;;;4994409;28;20497;-63
2022/11/30 06:03:55;;;;;;;8.98;0.82;;;;;;;;;;4962290;28;20629;-63
2022/11/30 06:06:25;;;;;;;1.83;1.02;;;;;;;;;;5011068;28;20045;-63
2022/11/30 06:08:55;;;;;;;2.22;0.85;;;;;;;;;;5010837;28;20065;-64
2022/11/30 06:11:24;;;;;;;3.08;0.85;;;;;;;;;;5011332;28;20053;-63
2022/11/30 06:13:54;;;;;;;2.75;0.63;;;;;;;;;;5010662;28;20529;-63
2022/11/30 06:16:23;;;;;;;5.00;1.08;;;;;;;;;;4994909;28;20549;-63
2022/11/30 06:18:53;;;;;;;2.20;0.85;;;;;;;;;;4962967;28;20054;-64
2022/11/30 06:21:22;;;;;;;3.45;0.93;;;;;;;;;;5010483;28;20054;-63
2022/11/30 06:23:52;;;;;;;3.28;1.02;;;;;;;;;;5010511;28;20057;-63
2022/11/30 06:26:22;;;;;;;2.08;0.93;;;;;;;;;;5026478;28;20065;-64
2022/11/30 06:28:52;;;;;;;4.05;1.50;;;;;;;;;;5002138;28;20415;-63
2022/11/30 06:31:22;;;;;;;4.03;1.00;;;;;;;;;;4975013;28;20061;-64
2022/11/30 06:33:51;;;;;;;3.40;0.75;;;;;;;;;;4974678;28;20061;-64
2022/11/30 06:36:22;;;;;;;2.00;0.80;;;;;;;;;;4990977;28;20042;-64
2022/11/30 06:38:51;;;;;;;2.55;1.00;;;;;;;;;;4974854;28;20066;-64
2022/11/30 06:41:21;;;;;;;3.17;1.15;;;;;;;;;;4993231;28;20073;-64
2022/11/30 06:43:51;;;;;;;4.57;1.10;;;;;;;;;;4993135;28;20054;-64
2022/11/30 06:46:21;;;;;;;3.30;1.10;;;;;;;;;;4991003;28;20061;-64
2022/11/30 06:48:50;;;;;;;5.82;1.50;;;;;;;;;;5009777;28;20049;-64
2022/11/30 06:51:20;;;;;;;3.63;1.35;;;;;;;;;;4993439;28;20554;-64
2022/11/30 06:53:49;;;;;;;2.08;0.85;;;;;;;;;;5010391;28;20049;-64
2022/11/30 06:56:19;;;;;;;3.72;1.23;;;;;;;;;;5009816;28;20050;-64
2022/11/30 06:58:49;;;;;;;3.35;1.10;;;;;;;;;;5025334;28;20497;-64
2022/11/30 07:01:19;;;;;;;3.47;1.02;;;;;;;;;;5009950;28;20065;-65
2022/11/30 07:03:49;;;;;;;3.80;0.77;;;;;;;;;;4977215;28;20161;-64
2022/11/30 07:06:18;;;;;;;5.18;1.08;;;;;;;;;;4976877;28;20054;-64
2022/11/30 07:08:48;;;;;;;2.50;0.82;;;;;;;;;;5009872;28;20058;-64
2022/11/30 07:11:18;;;;;;;3.75;0.90;;;;;;;;;;5008704;28;20046;-64
2022/11/30 07:13:48;;;;;;;4.25;1.00;;;;;;;;;;5009809;28;20065;-64
2022/11/30 07:16:17;;;;;;;2.10;0.82;;;;;;;;;;4960712;28;20062;-64
2022/11/30 07:18:47;;;;;;;2.55;0.90;;;;;;;;;;5009611;28;20053;-64
2022/11/30 07:21:16;;;;;;;4.85;0.80;;;;;;;;;;4976944;28;20105;-64
2022/11/30 07:26:34;;;;;;;1.85;0.73;;;;;;;;;;4998568;28;20062;-65
2022/11/30 07:29:04;;;;;;;1.60;0.82;;;;;;;;;;4973935;28;20069;-64
2022/11/30 07:31:34;;;;;;;2.38;0.80;;;;;;;;;;4989975;28;20061;-64
2022/11/30 07:34:06;;;;;;;6.93;0.93;;;;;;;;;;4989587;28;20518;-64
2022/11/30 07:36:37;;;;;;;2.25;0.60;;;;;;;;;;4989835;28;20058;-64
2022/11/30 07:39:08;;;;;;;1.77;0.73;;;;;;;;;;4970234;28;20070;-64
2022/11/30 07:41:38;;;;;;;4.53;1.00;;;;;;;;;;4921723;28;20059;-64
2022/11/30 07:44:13;;;;;;;3.58;0.95;;;;;;;;;;4931639;29;20489;-64
2022/11/30 07:46:44;;;;;;;3.72;0.85;;;;;;;;;;4932276;29;20051;-64
2022/11/30 07:49:14;;;;;;;6.25;1.05;;;;;;;;;;4934930;29;20059;-64
2022/11/30 07:51:44;;;;;;;4.65;0.80;;;;;;;;;;4950777;29;20690;-64
2022/11/30 07:54:14;;;;;;;2.67;0.98;;;;;;;;;;4950817;29;20070;-64
2022/11/30 07:56:43;;;;;;;4.25;1.13;;;;;;;;;;4950922;29;20067;-64
2022/11/30 07:59:13;;;;;;;4.82;1.20;;;;;;;;;;4934249;29;20055;-64
2022/11/30 08:01:43;;;;;;;3.63;1.05;;;;;;;;;;4950836;29;20055;-64
2022/11/30 08:04:13;;;;;;;3.63;1.23;;;;;;;;;;4950637;29;20496;-64
2022/11/30 08:06:43;;;;;;;8.82;2.10;;;;;;;;;;4950500;29;20499;-64
2022/11/30 08:09:13;;;;;;;4.78;0.95;;;;;;;;;;4931551;29;20064;-65
2022/11/30 08:11:48;;;;;;;4.10;0.75;;;;;;;;;;4931376;29;20532;-65
2022/11/30 08:14:18;;;;;;;7.68;0.98;;;;;;;;;;4934560;28;20059;-65
2022/11/30 08:16:49;;;;;;;3.55;0.95;;;;;;;;;;4980511;28;20054;-64
2022/11/30 08:19:19;;;;;;;3.33;0.93;;;;;;;;;;4973216;28;20066;-65
2022/11/30 08:21:48;;;;;;;3.55;1.15;;;;;;;;;;4957009;28;20089;-64
2022/11/30 08:24:18;;;;;;;6.28;1.25;;;;;;;;;;4993171;28;20054;-65
2022/11/30 08:26:51;;;;;;;6.40;1.20;;;;;;;;;;4957146;28;20047;-64
2022/11/30 08:29:21;;;;;;;5.18;1.30;;;;;;;;;;4974026;28;20055;-64
2022/11/30 08:31:51;;;;;;;5.78;1.30;;;;;;;;;;4973496;28;20062;-64
2022/11/30 08:34:21;;;;;;;8.32;1.27;;;;;;;;;;4925506;28;20063;-65
2022/11/30 08:36:51;;;;;;;5.00;1.00;;;;;;;;;;4957513;28;20538;-64
2022/11/30 08:39:21;;;;;;;7.78;1.73;;;;;;;;;;4927431;28;20063;-64
2022/11/30 08:41:51;;;;;;;3.95;1.30;;;;;;;;;;4960414;28;20054;-65
2022/11/30 08:44:21;;;;;;;5.60;1.20;;;;;;;;;;4992642;28;20057;-64
2022/11/30 08:46:51;;;;;;;3.90;1.27;;;;;;;;;;4992764;28;20483;-65
2022/11/30 08:49:22;;;;;;;5.13;1.55;;;;;;;;;;4992970;28;20458;-65
2022/11/30 08:51:55;;;;;;;6.82;1.50;;;;;;;;;;4941032;28;20055;-64
2022/11/30 08:54:46;;;;;;;5.05;1.50;;;;;;;;;;4973541;28;20059;-64
2022/11/30 08:57:19;;;;;;;3.30;1.13;;;;;;;;;;4953331;29;20508;-64
2022/11/30 08:59:49;;;;;;;3.42;1.17;;;;;;;;;;4953373;29;20055;-64
2022/11/30 09:02:19;;;;;;;7.60;1.45;;;;;;;;;;4921759;29;20059;-66
2022/11/30 09:04:50;;;;;;;4.60;1.50;;;;;;;;;;4941300;29;20063;-65
2022/11/30 09:07:20;;;;;;;4.53;1.05;;;;;;;;;;4950282;29;20059;-65
2022/11/30 09:09:50;;;;;;;4.82;1.40;;;;;;;;;;4956893;28;20061;-64
2022/11/30 09:12:20;;;;;;;2.58;1.10;;;;;;;;;;4972884;28;20057;-65
2022/11/30 09:14:49;;;;;;;8.07;0.75;;;;;;;;;;4972889;28;20066;-66
2022/11/30 09:17:26;;;;;;;3.50;1.25;;;;;;;;;;4955313;28;20051;-65
2022/11/30 09:19:56;;;;;;;1.60;0.60;;;;;;;;;;4973330;28;20561;-65
2022/11/30 09:22:26;;;;;;;2.08;0.80;;;;;;;;;;4972610;28;20067;-65
2022/11/30 09:24:56;;;;;;;1.17;0.57;;;;;;;;;;4956332;28;20051;-64
2022/11/30 09:27:29;;;;;;;2.65;0.65;;;;;;;;;;4972390;28;20058;-65
2022/11/30 09:29:59;;;;;;;2.03;0.80;;;;;;;;;;4977436;28;20606;-64
2022/11/30 09:32:29;;;;;;;5.40;0.70;;;;;;;;;;4972236;28;20054;-64
2022/11/30 09:34:58;;;;;;;2.00;1.08;;;;;;;;;;4950010;28;20422;-64
2022/11/30 09:37:28;;;;;;;5.00;1.50;;;;;;;;;;4994491;28;20046;-64
2022/11/30 09:39:58;;;;;;;2.95;0.68;;;;;;;;;;4994624;28;20046;-64
2022/11/30 09:42:45;;;;;;;2.42;0.60;;;;;;;;;;4994120;28;20054;-64
2022/11/30 09:45:31;;;;;;;2.05;0.80;;;;;;;;;;4994628;28;20050;-64
2022/11/30 09:48:26;;;;;;;1.73;0.60;;;;;;;;;;4959189;28;20047;-64
2022/11/30 09:51:04;;;;;;;2.22;0.60;;;;;;;;;;4975375;28;20049;-64
2022/11/30 09:53:43;;;;;;;2.92;0.80;;;;;;;;;;4975834;28;20280;-63
2022/11/30 09:56:36;;;;;;;3.28;0.95;;;;;;;;;;4994118;28;20474;-64
2022/11/30 09:59:14;;;;;;;1.77;0.80;;;;;;;;;;4977470;28;21223;-64
2022/11/30 10:01:47;;;;;;;8.18;0.95;;;;;;;;;;4962215;28;20506;-64
2022/11/30 10:04:27;;;;;;;5.10;1.55;;;;;;;;;;4994409;28;20506;-64
2022/11/30 10:07:04;;;;;;;2.88;1.02;;;;;;;;;;5011288;28;20046;-64
2022/11/30 10:09:54;;;;;;;5.78;0.80;;;;;;;;;;5010805;28;20076;-64
2022/11/30 10:12:56;;;;;;;5.32;0.82;;;;;;;;;;5011117;28;20049;-65
2022/11/30 10:15:34;;;;;;;1.27;0.70;;;;;;;;;;5010803;28;20046;-65
2022/11/30 10:18:14;;;;;;;6.95;0.98;;;;;;;;;;5010937;28;20058;-66
2022/11/30 10:20:54;;;;;;;4.88;1.17;;;;;;;;;;4962297;28;20406;-66
2022/11/30 10:23:41;;;;;;;4.03;1.00;;;;;;;;;;4962220;28;20057;-66
2022/11/30 10:26:16;;;;;;;4.65;0.85;;;;;;;;;;4994030;28;20601;-64
2022/11/30 10:29:05;;;;;;;2.13;0.60;;;;;;;;;;5010595;28;20442;-63
2022/11/30 10:31:39;;;;;;;1.75;0.80;;;;;;;;;;4993859;28;20555;-64
2022/11/30 10:34:35;;;;;;;2.03;0.75;;;;;;;;;;4961543;28;20050;-63
2022/11/30 10:37:26;;;;;;;2.05;0.80;;;;;;;;;;4895646;29;20058;-65
2022/11/30 10:39:59;;;;;;;2.28;0.80;;;;;;;;;;4933068;29;20051;-66
2022/11/30 10:42:44;;;;;;;5.13;1.15;;;;;;;;;;4951754;29;20495;-66
2022/11/30 10:45:19;;;;;;;2.28;0.85;;;;;;;;;;4904495;28;20055;-64
2022/11/30 10:48:11;;;;;;;2.83;0.73;;;;;;;;;;4951985;29;20538;-63
2022/11/30 10:50:41;;;;;;;4.10;0.70;;;;;;;;;;4917924;29;20071;-63
2022/11/30 10:53:12;;;;;;;3.63;0.50;;;;;;;;;;4932434;29;20071;-64
2022/11/30 10:55:51;;;;;;;2.55;0.70;;;;;;;;;;4916781;29;20064;-64
2022/11/30 10:58:30;;;;;;;2.78;0.50;;;;;;;;;;4932152;29;20051;-64
2022/11/30 11:01:05;;;;;;;1.08;0.40;;;;;;;;;;4932703;29;20390;-63
2022/11/30 11:03:36;;;;;;;1.90;0.52;;;;;;;;;;4916518;29;20056;-64
2022/11/30 11:06:24;;;;;;;1.98;0.40;;;;;;;;;;4916871;29;20420;-66
2022/11/30 11:08:54;;;;;;;1.70;0.45;;;;;;;;;;4932182;29;20066;-64
2022/11/30 11:11:37;;;;;;;1.38;0.70;;;;;;;;;;4932424;29;20762;-64
2022/11/30 11:14:17;;;;;;;0.70;0.57;;;;;;;;;;4946837;28;20418;-64
2022/11/30 11:16:56;;;;;;;1.95;0.30;;;;;;;;;;5009529;28;20510;-64
2022/11/30 11:19:41;;;;;;;2.58;0.50;;;;;;;;;;5005641;28;20054;-65
2022/11/30 11:22:23;;;;;;;1.05;0.30;;;;;;;;;;4989924;28;20062;-64
2022/11/30 11:25:08;;;;;;;0.30;0.20;;;;;;;;;;4990427;28;20069;-63
2022/11/30 11:27:40;;;;;;;0.73;0.40;;;;;;;;;;4990212;28;20054;-63
2022/11/30 11:30:29;;;;;;;0.45;0.22;;;;;;;;;;4992440;28;20051;-63
2022/11/30 11:33:04;;;;;;;1.35;0.30;;;;;;;;;;5009034;28;20046;-63
2022/11/30 11:35:36;;;;;;;2.20;0.25;;;;;;;;;;5009346;28;20161;-64
2022/11/30 11:38:25;;;;;;;0.45;0.30;;;;;;;;;;5009512;28;20050;-64
2022/11/30 11:41:00;;;;;;;0.98;0.40;;;;;;;;;;4976966;28;20565;-65
2022/11/30 11:43:32;;;;;;;1.13;0.30;;;;;;;;;;5028907;28;20049;-64
2022/11/30 11:46:13;;;;;;;1.55;0.20;;;;;;;;;;5029198;28;20068;-64
2022/11/30 11:48:57;;;;;;;0.47;0.22;;;;;;;;;;5028842;28;20065;-64
2022/11/30 11:51:39;;;;;;;0.60;0.30;;;;;;;;;;5012867;28;20076;-63
2022/11/30 11:54:35;;;;;;;0.50;0.30;;;;;;;;;;5012767;28;20054;-63
2022/11/30 11:57:15;;;;;;;0.40;0.35;;;;;;;;;;5028208;28;20057;-63
2022/11/30 11:59:57;;;;;;;1.23;0.22;;;;;;;;;;4979051;28;20060;-64
2022/11/30 12:03:04;;;;;;;0.40;0.30;;;;;;;;;;4995510;28;20061;-65
2022/11/30 12:06:07;;;;;;;3.85;0.98;;;;;;;;;;5028508;28;20405;-63
2022/11/30 12:08:43;;;;;;;4.43;0.50;;;;;;;;;;4989313;28;20061;-65
2022/11/30 12:11:40;;;;;;;1.55;0.30;;;;;;;;;;4975173;28;20507;-66
2022/11/30 12:14:15;;;;;;;0.95;0.50;;;;;;;;;;4937584;28;20047;-65
2022/11/30 12:16:57;;;;;;;1.48;0.60;;;;;;;;;;4969831;28;20063;-65
2022/11/30 12:19:53;;;;;;;1.17;0.30;;;;;;;;;;4969803;28;20058;-65
2022/11/30 12:22:58;;;;;;;3.97;0.68;;;;;;;;;;4956784;28;20066;-64
2022/11/30 12:25:41;;;;;;;1.63;0.43;;;;;;;;;;4969785;28;20066;-64
2022/11/30 12:28:33;;;;;;;1.13;0.35;;;;;;;;;;4937860;28;20743;-64
2022/11/30 12:31:10;;;;;;;0.25;0.25;;;;;;;;;;4969647;28;20055;-64
2022/11/30 12:33:58;;;;;;;0.95;0.50;;;;;;;;;;4969906;28;20055;-64
2022/11/30 12:36:46;;;;;;;1.15;0.50;;;;;;;;;;4969447;28;20517;-64
2022/11/30 12:39:51;;;;;;;0.70;0.30;;;;;;;;;;4969387;28;20384;-64
2022/11/30 12:42:42;;;;;;;3.92;0.65;;;;;;;;;;4972706;28;20542;-64
2022/11/30 12:45:19;;;;;;;1.02;0.40;;;;;;;;;;4968256;28;20198;-64
2022/11/30 12:48:04;;;;;;;2.40;0.38;;;;;;;;;;4924766;28;20521;-64
2022/11/30 12:50:39;;;;;;;2.97;0.80;;;;;;;;;;4973462;28;20545;-64
2022/11/30 12:53:38;;;;;;;0.50;0.40;;;;;;;;;;4972581;28;20761;-64
2022/11/30 12:56:28;;;;;;;1.67;0.40;;;;;;;;;;4940855;28;20058;-64
2022/11/30 12:59:48;;;;;;;0.70;0.50;;;;;;;;;;4988294;28;20046;-64
2022/11/30 13:02:50;;;;;;;1.85;0.65;;;;;;;;;;4950031;29;20558;-64
2022/11/30 13:05:30;;;;;;;0.52;0.40;;;;;;;;;;4934202;29;20073;-65
2022/11/30 13:08:19;;;;;;;0.93;0.63;;;;;;;;;;4950109;29;20539;-65
2022/11/30 13:10:58;;;;;;;0.60;0.38;;;;;;;;;;4952825;29;20059;-64
2022/11/30 13:13:34;;;;;;;2.58;0.40;;;;;;;;;;4896391;29;20041;-65
2022/11/30 13:16:07;;;;;;;2.90;0.40;;;;;;;;;;4896404;29;20063;-64
2022/11/30 13:18:37;;;;;;;1.17;0.57;;;;;;;;;;4896349;29;20057;-66
2022/11/30 13:21:18;;;;;;;3.05;0.47;;;;;;;;;;4896331;29;20065;-66
2022/11/30 13:24:05;;;;;;;1.73;0.43;;;;;;;;;;4894994;29;20048;-64
2022/11/30 13:27:09;;;;;;;0.75;0.35;;;;;;;;;;4896011;29;20055;-64
2022/11/30 13:30:03;;;;;;;1.00;0.30;;;;;;;;;;4953087;29;20217;-64
2022/11/30 13:32:33;;;;;;;0.85;0.32;;;;;;;;;;4937420;29;20078;-64
2022/11/30 13:35:29;;;;;;;1.48;0.40;;;;;;;;;;4955937;28;20412;-64
2022/11/30 13:38:04;;;;;;;6.30;2.75;;;;;;;;;;4943556;28;20066;-65
2022/11/30 13:40:57;;;;;;;5.00;0.70;;;;;;;;;;4991754;28;20439;-64
2022/11/30 13:43:36;;;;;;;1.02;0.40;;;;;;;;;;4991994;28;20050;-65
2022/11/30 13:46:07;;;;;;;1.48;0.43;;;;;;;;;;4991929;28;20042;-65
2022/11/30 13:48:40;;;;;;;1.92;0.40;;;;;;;;;;4959203;28;20082;-64
2022/11/30 13:51:11;;;;;;;1.10;1.00;;;;;;;;;;4989198;28;20064;-65
2022/11/30 13:53:40;;;;;;;3.03;1.67;;;;;;;;;;5031255;28;20068;-64
2022/11/30 13:56:19;;;;;;;0.75;0.45;;;;;;;;;;4998045;28;20084;-64
2022/11/30 13:59:22;;;;;;;0.40;0.20;;;;;;;;;;5030233;28;20060;-65
2022/11/30 14:02:14;;;;;;;2.38;0.60;;;;;;;;;;5030750;28;20148;-65
2022/11/30 14:04:45;;;;;;;2.22;0.40;;;;;;;;;;5030919;28;20057;-66
2022/11/30 14:07:37;;;;;;;0.63;0.43;;;;;;;;;;4965370;28;20093;-65
2022/11/30 14:10:55;;;;;;;0.90;0.40;;;;;;;;;;4991478;28;20055;-65
2022/11/30 14:13:30;;;;;;;0.80;0.40;;;;;;;;;;4994059;28;20495;-64
2022/11/30 14:16:02;;;;;;;1.67;0.30;;;;;;;;;;5011168;28;20049;-65
2022/11/30 14:18:41;;;;;;;0.80;0.50;;;;;;;;;;4993998;28;20130;-65
2022/11/30 14:21:17;;;;;;;0.73;0.63;;;;;;;;;;5010550;28;20525;-65
2022/11/30 14:24:01;;;;;;;1.13;0.60;;;;;;;;;;4961147;28;20380;-65
2022/11/30 14:26:42;;;;;;;0.90;0.57;;;;;;;;;;5010489;28;20413;-65
2022/11/30 14:29:31;;;;;;;0.70;0.30;;;;;;;;;;4977976;28;20053;-65
2022/11/30 14:32:09;;;;;;;1.75;0.40;;;;;;;;;;4993961;28;20560;-66
2022/11/30 14:34:53;;;;;;;2.08;0.30;;;;;;;;;;4994134;28;20049;-66
2022/11/30 14:37:32;;;;;;;0.75;0.40;;;;;;;;;;5010429;28;20077;-65
2022/11/30 14:40:06;;;;;;;0.93;0.40;;;;;;;;;;5010528;28;20042;-65
2022/11/30 14:42:36;;;;;;;1.85;0.90;;;;;;;;;;4977793;28;20057;-65
2022/11/30 14:45:27;;;;;;;1.00;0.45;;;;;;;;;;4961718;28;20157;-66
2022/11/30 14:48:17;;;;;;;1.25;0.40;;;;;;;;;;5010407;28;20050;-65
2022/11/30 14:50:50;;;;;;;0.52;0.30;;;;;;;;;;4974775;28;20423;-65
2022/11/30 14:53:34;;;;;;;0.55;0.30;;;;;;;;;;4990753;28;20050;-65
2022/11/30 14:56:21;;;;;;;0.93;0.30;;;;;;;;;;4973336;28;20054;-64
2022/11/30 14:59:16;;;;;;;0.75;0.30;;;;;;;;;;4996922;28;20048;-64
2022/11/30 15:01:46;;;;;;;0.50;0.40;;;;;;;;;;5010137;28;20080;-65
2022/11/30 15:04:17;;;;;;;0.63;0.20;;;;;;;;;;5010010;28;20058;-65
2022/11/30 15:06:46;;;;;;;0.20;0.20;;;;;;;;;;5010343;28;20058;-65
2022/11/30 15:09:25;;;;;;;0.38;0.32;;;;;;;;;;5009265;28;20053;-67
2022/11/30 15:11:56;;;;;;;0.55;0.40;;;;;;;;;;4992972;28;20058;-67
2022/11/30 15:14:26;;;;;;;1.30;0.40;;;;;;;;;;4976322;28;20057;-67
2022/11/30 15:16:57;;;;;;;0.70;0.30;;;;;;;;;;4992160;28;20518;-66
2022/11/30 15:19:30;;;;;;;1.35;0.20;;;;;;;;;;5008796;28;20069;-66
2022/11/30 15:22:00;;;;;;;0.60;0.30;;;;;;;;;;5008820;28;20050;-66
2022/11/30 15:24:29;;;;;;;0.43;0.32;;;;;;;;;;5008647;28;20128;-66
2022/11/30 15:27:06;;;;;;;0.32;0.30;;;;;;;;;;5008902;28;20050;-66
2022/11/30 15:29:46;;;;;;;0.35;0.28;;;;;;;;;;4960122;28;20537;-66
2022/11/30 15:32:19;;;;;;;0.40;0.40;;;;;;;;;;5008398;28;20060;-67